Time;durP1;ratioP1;P1;durP2;ratioP2;P2;SDS_P1;SDS_P2;PMS_P1;PMS_P2;Temp;Humidity;BMP_temperature;BMP_pressure;BME280_temperature;BME280_humidity;BME280_pressure;Samples;Min_cycle;Max_cycle;Signal;HPM_P1;HPM_P2
2023/05/01 00:00:21;;;;;;;19.60;13.03;;;8.30;99.90;;;;;;4824754;29;20601;-55
2023/05/01 00:02:53;;;;;;;17.23;12.33;;;8.20;99.90;;;;;;4824950;29;20263;-55
2023/05/01 00:05:21;;;;;;;16.73;12.00;;;8.20;99.90;;;;;;4824993;29;20233;-55
2023/05/01 00:07:49;;;;;;;15.97;11.57;;;8.20;99.90;;;;;;4824655;29;20242;-55
2023/05/01 00:10:22;;;;;;;17.97;13.73;;;8.30;99.90;;;;;;4824860;29;20328;-55
2023/05/01 00:12:50;;;;;;;13.10;10.43;;;8.30;99.90;;;;;;4840855;29;20238;-55
2023/05/01 00:15:18;;;;;;;13.87;10.80;;;8.10;99.90;;;;;;4830331;29;20248;-55
2023/05/01 00:17:47;;;;;;;15.50;11.00;;;8.00;99.90;;;;;;4826031;29;20231;-55
2023/05/01 00:20:16;;;;;;;15.30;11.80;;;8.00;99.90;;;;;;4830491;29;20239;-55
2023/05/01 00:22:44;;;;;;;17.17;12.93;;;8.10;99.90;;;;;;4824626;29;20748;-55
2023/05/01 00:25:12;;;;;;;16.23;12.70;;;8.10;99.90;;;;;;4824969;29;20232;-54
2023/05/01 00:27:42;;;;;;;15.93;12.17;;;8.10;99.90;;;;;;4824425;29;20241;-55
2023/05/01 00:30:11;;;;;;;16.00;11.53;;;8.00;99.90;;;;;;4824667;29;20228;-55
2023/05/01 00:32:39;;;;;;;18.57;12.23;;;8.10;99.90;;;;;;4824117;29;20239;-54
2023/05/01 00:35:11;;;;;;;15.93;10.97;;;8.00;99.90;;;;;;4824555;29;20244;-55
2023/05/01 00:37:39;;;;;;;13.43;10.17;;;8.00;99.90;;;;;;4823151;29;20246;-55
2023/05/01 00:40:08;;;;;;;15.83;11.63;;;8.00;99.90;;;;;;4824521;29;20228;-54
2023/05/01 00:42:38;;;;;;;17.03;12.47;;;7.90;99.90;;;;;;4822937;29;20623;-54
2023/05/01 00:45:09;;;;;;;13.80;11.13;;;8.00;99.90;;;;;;4823968;29;20712;-55
2023/05/01 00:47:37;;;;;;;15.87;10.50;;;8.00;99.90;;;;;;4831515;29;20771;-55
2023/05/01 00:50:07;;;;;;;14.17;11.33;;;8.20;99.90;;;;;;4821511;29;20236;-55
2023/05/01 00:52:36;;;;;;;15.90;12.13;;;8.10;99.90;;;;;;4824130;29;20240;-54
2023/05/01 00:55:05;;;;;;;11.97;10.47;;;8.00;99.90;;;;;;4823109;29;20285;-55
2023/05/01 00:57:33;;;;;;;19.60;12.67;;;8.10;99.90;;;;;;4824078;29;20647;-54
2023/05/01 01:00:02;;;;;;;13.90;10.27;;;8.10;99.90;;;;;;4824154;29;20228;-55
2023/05/01 01:02:36;;;;;;;14.60;11.30;;;8.00;99.90;;;;;;4827282;29;20251;-57
2023/05/01 01:05:05;;;;;;;14.80;11.33;;;7.90;99.90;;;;;;4834006;29;20318;-56
2023/05/01 01:07:40;;;;;;;13.00;9.73;;;7.70;99.90;;;;;;4841968;29;20228;-56
2023/05/01 01:10:18;;;;;;;10.93;9.50;;;7.70;99.90;;;;;;4811155;29;20327;-56
2023/05/01 01:12:53;;;;;;;14.30;10.90;;;7.80;99.90;;;;;;4810888;29;20657;-56
2023/05/01 01:15:29;;;;;;;16.57;11.27;;;7.60;99.90;;;;;;4811941;29;20241;-57
2023/05/01 01:18:08;;;;;;;11.53;9.43;;;7.60;99.90;;;;;;4832342;29;20234;-56
2023/05/01 01:20:49;;;;;;;12.47;9.97;;;7.70;99.90;;;;;;4834585;29;20244;-57
2023/05/01 01:23:41;;;;;;;13.30;9.87;;;7.60;99.90;;;;;;4832358;29;20285;-57
2023/05/01 01:26:28;;;;;;;13.87;9.90;;;7.60;99.90;;;;;;4843104;29;20236;-57
2023/05/01 01:29:08;;;;;;;14.77;9.80;;;7.50;99.90;;;;;;4829210;29;20227;-56
2023/05/01 01:31:46;;;;;;;13.33;10.53;;;7.50;99.90;;;;;;4829231;29;20239;-56
2023/05/01 01:34:21;;;;;;;15.57;11.20;;;7.50;99.90;;;;;;4829284;29;20228;-57
2023/05/01 01:36:55;;;;;;;13.80;10.63;;;7.40;99.90;;;;;;4829107;29;20252;-56
2023/05/01 01:39:29;;;;;;;13.40;10.07;;;7.40;99.90;;;;;;4828679;29;20238;-56
2023/05/01 01:42:00;;;;;;;12.73;11.13;;;7.40;99.90;;;;;;4829092;29;20715;-57
2023/05/01 01:44:34;;;;;;;15.80;11.60;;;7.50;99.90;;;;;;4829213;29;20224;-56
2023/05/01 01:47:06;;;;;;;13.90;10.93;;;7.50;99.90;;;;;;4830849;29;20231;-56
2023/05/01 01:49:41;;;;;;;16.67;12.13;;;7.50;99.90;;;;;;4836181;29;20238;-57
2023/05/01 01:52:13;;;;;;;14.47;11.30;;;7.50;99.90;;;;;;4820900;29;20776;-56
2023/05/01 01:54:45;;;;;;;12.30;10.57;;;7.50;99.90;;;;;;4828768;29;20236;-56
2023/05/01 01:57:16;;;;;;;15.37;10.90;;;7.60;99.90;;;;;;4838290;29;20236;-56
2023/05/01 01:59:48;;;;;;;14.17;10.07;;;7.70;99.90;;;;;;4832560;29;20223;-56
2023/05/01 02:02:19;;;;;;;14.93;10.77;;;7.80;99.90;;;;;;4848324;29;20258;-56
2023/05/01 02:04:51;;;;;;;14.03;10.80;;;7.80;99.90;;;;;;4838326;29;20233;-57
2023/05/01 02:07:20;;;;;;;13.67;10.30;;;7.70;99.90;;;;;;4826409;29;20239;-57
2023/05/01 02:09:51;;;;;;;15.50;11.33;;;7.70;99.90;;;;;;4831904;29;20712;-56
2023/05/01 02:12:21;;;;;;;12.37;10.63;;;7.60;99.90;;;;;;4830081;29;20609;-56
2023/05/01 02:14:51;;;;;;;16.00;11.53;;;7.50;99.90;;;;;;4830751;29;20332;-56
2023/05/01 02:17:21;;;;;;;15.17;10.80;;;7.30;99.90;;;;;;4836625;29;20235;-56
2023/05/01 02:19:53;;;;;;;13.50;11.17;;;7.40;99.90;;;;;;4837066;29;20258;-56
2023/05/01 02:22:24;;;;;;;15.73;11.20;;;7.40;99.90;;;;;;4831230;29;20671;-56
2023/05/01 02:24:54;;;;;;;16.53;11.90;;;7.30;99.90;;;;;;4830613;29;20248;-56
2023/05/01 02:27:28;;;;;;;14.53;11.27;;;7.30;99.90;;;;;;4830596;29;20239;-56
2023/05/01 02:29:56;;;;;;;12.97;11.43;;;7.30;99.90;;;;;;4830788;29;20641;-56
2023/05/01 02:32:27;;;;;;;11.73;10.13;;;7.20;99.90;;;;;;4830580;29;20267;-55
2023/05/01 02:34:58;;;;;;;16.73;10.57;;;7.20;99.90;;;;;;4829067;29;20305;-56
2023/05/01 02:37:29;;;;;;;12.63;10.13;;;7.30;99.90;;;;;;4834091;29;20242;-55
2023/05/01 02:39:57;;;;;;;14.00;10.70;;;7.20;99.90;;;;;;4830111;29;20595;-56
2023/05/01 02:42:27;;;;;;;12.07;10.57;;;7.30;99.90;;;;;;4831135;29;20303;-55
2023/05/01 02:44:58;;;;;;;12.53;9.90;;;7.30;99.90;;;;;;4831449;29;20239;-56
2023/05/01 02:47:28;;;;;;;11.37;9.40;;;7.30;99.90;;;;;;4836359;29;20234;-55
2023/05/01 02:50:00;;;;;;;11.90;10.60;;;7.40;99.90;;;;;;4836312;29;20262;-56
2023/05/01 02:52:29;;;;;;;13.50;9.97;;;7.30;99.90;;;;;;4829956;29;20289;-56
2023/05/01 02:55:15;;;;;;;10.20;8.60;;;7.10;99.90;;;;;;4845612;29;20232;-56
2023/05/01 02:57:43;;;;;;;10.67;9.23;;;7.20;99.90;;;;;;4831182;29;20283;-56
2023/05/01 03:00:12;;;;;;;11.63;10.37;;;7.20;99.90;;;;;;4829318;29;20244;-56
2023/05/01 03:02:41;;;;;;;10.23;9.20;;;7.20;99.90;;;;;;4829345;29;20324;-56
2023/05/01 03:05:11;;;;;;;10.77;8.93;;;7.30;99.90;;;;;;4830452;29;20236;-56
2023/05/01 03:07:39;;;;;;;14.23;10.00;;;7.30;99.90;;;;;;4830680;29;20232;-56
2023/05/01 03:10:08;;;;;;;21.53;10.10;;;7.20;99.90;;;;;;4831240;29;20240;-56
2023/05/01 03:12:36;;;;;;;10.03;8.47;;;7.10;99.90;;;;;;4831003;29;20228;-56
2023/05/01 03:15:05;;;;;;;13.63;9.80;;;7.10;99.90;;;;;;4830523;29;20228;-56
2023/05/01 03:17:33;;;;;;;12.37;10.10;;;7.00;99.90;;;;;;4836468;29;20235;-56
2023/05/01 03:20:05;;;;;;;13.60;9.87;;;6.90;99.90;;;;;;4834772;29;20292;-56
2023/05/01 03:22:34;;;;;;;9.50;8.50;;;6.70;99.90;;;;;;4830501;29;20597;-56
2023/05/01 03:25:04;;;;;;;11.00;8.87;;;6.70;99.90;;;;;;4831139;29;20224;-56
2023/05/01 03:27:32;;;;;;;10.23;8.80;;;6.80;99.90;;;;;;4833285;29;20244;-56
2023/05/01 03:30:01;;;;;;;10.93;9.67;;;6.60;99.90;;;;;;4828876;29;20645;-56
2023/05/01 03:32:32;;;;;;;11.23;9.30;;;6.40;99.90;;;;;;4828705;29;20660;-56
2023/05/01 03:35:01;;;;;;;9.63;8.63;;;6.50;99.90;;;;;;4828087;29;20667;-56
2023/05/01 03:37:29;;;;;;;12.37;9.60;;;6.50;99.90;;;;;;4828428;29;20236;-56
2023/05/01 03:39:59;;;;;;;12.90;10.13;;;6.60;99.90;;;;;;4830352;29;20228;-56
2023/05/01 03:42:46;;;;;;;10.43;9.33;;;6.60;99.90;;;;;;4830261;29;20304;-55
2023/05/01 03:45:20;;;;;;;13.10;9.70;;;6.60;99.90;;;;;;4844141;29;20232;-56
2023/05/01 03:47:48;;;;;;;10.13;8.60;;;6.60;99.90;;;;;;4842157;29;20247;-56
2023/05/01 03:50:17;;;;;;;13.10;9.30;;;6.60;99.90;;;;;;4833009;29;20238;-56
2023/05/01 03:52:48;;;;;;;10.77;9.03;;;6.60;99.90;;;;;;4835762;29;20228;-56
2023/05/01 03:55:18;;;;;;;12.13;9.43;;;6.60;99.90;;;;;;4844664;29;20232;-56
2023/05/01 03:57:47;;;;;;;11.00;8.93;;;6.70;99.90;;;;;;4828490;29;20244;-56
2023/05/01 04:00:16;;;;;;;9.07;7.57;;;6.80;99.90;;;;;;4829078;29;20335;-56
2023/05/01 04:02:47;;;;;;;8.27;7.07;;;6.80;99.90;;;;;;4827149;29;20266;-56
2023/05/01 04:05:21;;;;;;;9.23;7.00;;;6.90;99.90;;;;;;4837592;29;20240;-56
2023/05/01 04:07:56;;;;;;;9.30;7.43;;;7.00;99.90;;;;;;4832168;29;20243;-56
2023/05/01 04:10:25;;;;;;;10.50;6.77;;;6.90;99.90;;;;;;4830628;29;20420;-55
2023/05/01 04:12:58;;;;;;;11.33;5.73;;;6.70;99.90;;;;;;4828732;29;20235;-56
2023/05/01 04:15:27;;;;;;;7.53;4.13;;;6.60;99.90;;;;;;4828968;29;20812;-56
2023/05/01 04:17:55;;;;;;;10.17;5.73;;;6.60;99.90;;;;;;4836762;29;20657;-57
2023/05/01 04:20:24;;;;;;;7.37;4.67;;;6.60;99.90;;;;;;4833172;29;20262;-56
2023/05/01 04:22:53;;;;;;;6.67;4.20;;;6.70;99.90;;;;;;4830607;29;20287;-56
2023/05/01 04:25:22;;;;;;;8.03;4.10;;;6.60;99.90;;;;;;4844306;29;20300;-56
2023/05/01 04:27:54;;;;;;;6.60;3.83;;;6.60;99.90;;;;;;4830455;29;20239;-57
2023/05/01 04:30:22;;;;;;;5.77;3.70;;;6.60;99.90;;;;;;4829255;29;20348;-56
2023/05/01 04:32:50;;;;;;;7.70;4.10;;;6.60;99.90;;;;;;4829259;29;20292;-56
2023/05/01 04:35:22;;;;;;;5.00;3.53;;;6.70;99.90;;;;;;4828797;29;20319;-56
2023/05/01 04:37:51;;;;;;;7.20;4.03;;;6.80;99.90;;;;;;4830306;29;20219;-56
2023/05/01 04:40:19;;;;;;;4.47;3.23;;;6.80;99.90;;;;;;4829523;29;20237;-56
2023/05/01 04:42:47;;;;;;;5.50;3.47;;;6.90;99.90;;;;;;4829768;29;20236;-56
2023/05/01 04:45:17;;;;;;;5.97;3.40;;;7.00;99.90;;;;;;4829833;29;20330;-56
2023/05/01 04:47:45;;;;;;;6.60;3.60;;;7.00;99.90;;;;;;4836480;29;20223;-57
2023/05/01 04:50:13;;;;;;;4.87;3.70;;;7.10;99.90;;;;;;4834232;29;20238;-56
2023/05/01 04:52:42;;;;;;;6.10;3.40;;;7.00;99.90;;;;;;4830431;29;20254;-57
2023/05/01 04:55:10;;;;;;;6.63;3.47;;;7.20;99.90;;;;;;4843944;29;20295;-57
2023/05/01 04:57:47;;;;;;;10.07;4.00;;;7.30;99.90;;;;;;4830846;29;20236;-57
2023/05/01 05:00:17;;;;;;;7.80;3.70;;;7.40;99.90;;;;;;4828279;29;20739;-56
2023/05/01 05:02:52;;;;;;;4.30;2.93;;;7.40;99.90;;;;;;4827449;29;20256;-56
2023/05/01 05:05:21;;;;;;;6.43;3.53;;;7.40;99.90;;;;;;4831923;29;20290;-57
2023/05/01 05:07:50;;;;;;;5.00;3.67;;;7.50;99.90;;;;;;4844459;29;20682;-57
2023/05/01 05:10:34;;;;;;;5.30;3.30;;;7.70;99.90;;;;;;4844701;29;20238;-57
2023/05/01 05:13:27;;;;;;;4.87;3.53;;;7.70;99.90;;;;;;4846111;29;20243;-56
2023/05/01 05:16:03;;;;;;;5.60;3.07;;;7.70;99.90;;;;;;4845063;29;20239;-57
2023/05/01 05:18:32;;;;;;;6.10;3.40;;;7.70;99.90;;;;;;4833941;29;20235;-56
2023/05/01 05:21:03;;;;;;;5.23;3.23;;;7.70;99.90;;;;;;4832233;29;20224;-56
2023/05/01 05:23:32;;;;;;;8.60;3.60;;;7.70;99.90;;;;;;4838113;29;20238;-57
2023/05/01 05:26:01;;;;;;;5.03;3.50;;;7.80;99.90;;;;;;4841518;29;20308;-56
2023/05/01 05:28:31;;;;;;;7.93;3.33;;;7.90;99.90;;;;;;4826333;29;20731;-57
2023/05/01 05:31:02;;;;;;;6.07;3.23;;;8.00;99.90;;;;;;4829292;29;20274;-57
2023/05/01 05:33:32;;;;;;;4.53;3.33;;;8.00;99.90;;;;;;4830020;29;20231;-56
2023/05/01 05:36:00;;;;;;;9.10;3.57;;;8.20;99.90;;;;;;4829600;29;20255;-57
2023/05/01 05:38:34;;;;;;;6.60;3.23;;;8.40;99.90;;;;;;4829409;29;20297;-57
2023/05/01 05:41:04;;;;;;;6.27;3.03;;;8.60;99.90;;;;;;4830387;29;20271;-57
2023/05/01 05:43:32;;;;;;;5.50;2.93;;;8.80;99.90;;;;;;4830234;29;20280;-57
2023/05/01 05:46:02;;;;;;;5.33;3.17;;;9.00;99.90;;;;;;4831043;29;20296;-57
2023/05/01 05:48:32;;;;;;;5.93;3.10;;;9.10;99.90;;;;;;4837970;29;20228;-56
2023/05/01 05:51:01;;;;;;;7.80;3.43;;;9.30;99.90;;;;;;4832834;29;20570;-57
2023/05/01 05:53:29;;;;;;;6.80;3.07;;;9.50;99.90;;;;;;4829801;29;20712;-57
2023/05/01 05:55:57;;;;;;;5.20;3.47;;;9.70;99.90;;;;;;4830691;29;20745;-57
2023/05/01 05:58:26;;;;;;;6.97;3.00;;;9.90;99.90;;;;;;4836389;29;20805;-56
2023/05/01 06:00:54;;;;;;;7.83;2.87;;;10.10;99.90;;;;;;4846464;29;20327;-57
2023/05/01 06:03:24;;;;;;;4.50;2.90;;;10.10;99.90;;;;;;4841169;29;20281;-57
2023/05/01 06:05:55;;;;;;;5.00;3.00;;;10.30;99.90;;;;;;4828170;29;20232;-57
2023/05/01 06:08:23;;;;;;;5.20;2.80;;;10.40;99.90;;;;;;4829438;29;20578;-57
2023/05/01 06:10:51;;;;;;;5.33;3.87;;;10.70;99.90;;;;;;4830023;29;20636;-57
2023/05/01 06:13:19;;;;;;;6.93;3.10;;;10.80;99.90;;;;;;4830553;29;20740;-57
2023/05/01 06:15:49;;;;;;;6.10;3.00;;;11.00;99.90;;;;;;4829215;29;20234;-57
2023/05/01 06:18:18;;;;;;;4.53;2.90;;;11.00;99.90;;;;;;4839206;29;20230;-57
2023/05/01 06:20:47;;;;;;;5.60;3.23;;;11.20;99.90;;;;;;4834764;29;20246;-58
2023/05/01 06:23:17;;;;;;;4.70;2.90;;;11.40;99.90;;;;;;4831533;29;20301;-57
2023/05/01 06:26:10;;;;;;;5.77;3.03;;;11.40;99.90;;;;;;4844577;29;20336;-58
2023/05/01 06:28:39;;;;;;;4.07;2.70;;;11.50;99.90;;;;;;4829379;29;20242;-58
2023/05/01 06:31:07;;;;;;;8.00;3.20;;;11.60;99.90;;;;;;4829617;29;20276;-58
2023/05/01 06:33:40;;;;;;;7.03;3.00;;;11.50;99.90;;;;;;4828854;29;20607;-57
2023/05/01 06:36:21;;;;;;;4.80;2.63;;;11.50;99.90;;;;;;4828057;29;20240;-58
2023/05/01 06:38:49;;;;;;;6.47;2.90;;;11.60;99.90;;;;;;4828759;29;20226;-58
2023/05/01 06:41:17;;;;;;;5.30;3.30;;;11.80;99.90;;;;;;4827692;29;20231;-58
2023/05/01 06:43:45;;;;;;;5.90;3.33;;;12.00;99.90;;;;;;4826906;29;20265;-58
2023/05/01 06:46:16;;;;;;;6.80;3.20;;;12.10;99.90;;;;;;4826904;29;20247;-58
2023/05/01 06:48:44;;;;;;;7.33;3.50;;;12.20;99.90;;;;;;4835036;29;20700;-57
2023/05/01 06:51:14;;;;;;;7.80;3.13;;;12.30;99.90;;;;;;4829454;29;20326;-58
2023/05/01 06:53:44;;;;;;;8.30;3.47;;;12.40;99.90;;;;;;4827663;29;20323;-58
2023/05/01 06:56:12;;;;;;;7.73;3.03;;;12.80;99.90;;;;;;4828536;29;20258;-58
2023/05/01 06:58:40;;;;;;;4.63;2.70;;;12.90;99.90;;;;;;4826908;29;20234;-58
2023/05/01 07:01:08;;;;;;;5.57;2.87;;;12.80;99.90;;;;;;4827595;29;20295;-57
2023/05/01 07:03:37;;;;;;;5.00;2.60;;;13.00;99.90;;;;;;4828399;29;20255;-58
2023/05/01 07:06:05;;;;;;;5.33;2.50;;;13.20;99.90;;;;;;4832062;29;20270;-58
2023/05/01 07:08:33;;;;;;;5.53;3.07;;;13.30;99.90;;;;;;4847257;29;20231;-58
2023/05/01 07:11:03;;;;;;;6.67;2.70;;;13.50;99.90;;;;;;4847396;29;20259;-58
2023/05/01 07:13:31;;;;;;;6.20;2.70;;;13.70;99.90;;;;;;4847278;29;20710;-58
2023/05/01 07:16:00;;;;;;;5.10;2.60;;;14.00;99.90;;;;;;4840878;29;20243;-58
2023/05/01 07:18:28;;;;;;;5.30;3.00;;;14.30;99.90;;;;;;4839877;29;20273;-57
2023/05/01 07:20:56;;;;;;;4.23;2.50;;;14.60;99.90;;;;;;4841502;29;20248;-59
2023/05/01 07:23:24;;;;;;;6.53;2.90;;;14.80;99.90;;;;;;4828439;29;20696;-58
2023/05/01 07:25:52;;;;;;;5.43;2.90;;;15.00;99.90;;;;;;4828382;29;20243;-59
2023/05/01 07:28:22;;;;;;;4.17;2.60;;;15.10;99.90;;;;;;4828191;29;20265;-59
2023/05/01 07:30:50;;;;;;;4.40;2.37;;;15.20;99.90;;;;;;4827584;29;20253;-59
2023/05/01 07:33:19;;;;;;;5.20;2.13;;;15.10;99.90;;;;;;4828842;29;20236;-59
2023/05/01 07:35:47;;;;;;;4.83;2.20;;;15.40;99.90;;;;;;4827662;29;20693;-59
2023/05/01 07:38:16;;;;;;;4.53;2.43;;;15.40;99.90;;;;;;4827651;29;20236;-58
2023/05/01 07:40:45;;;;;;;4.13;2.20;;;15.40;99.90;;;;;;4826483;29;20267;-57
2023/05/01 07:43:13;;;;;;;5.17;2.63;;;15.40;99.90;;;;;;4815622;29;20236;-58
2023/05/01 07:45:53;;;;;;;5.87;2.83;;;15.50;99.90;;;;;;4812563;29;20243;-58
2023/05/01 07:48:22;;;;;;;5.90;2.37;;;15.50;99.90;;;;;;4813178;29;20239;-58
2023/05/01 07:50:52;;;;;;;5.07;2.60;;;15.70;99.90;;;;;;4811179;29;20601;-58
2023/05/01 07:53:21;;;;;;;4.03;2.40;;;16.00;99.90;;;;;;4811796;29;20728;-58
2023/05/01 07:55:49;;;;;;;4.87;2.27;;;16.10;99.90;;;;;;4811766;29;20247;-58
2023/05/01 07:58:18;;;;;;;4.57;2.23;;;16.30;99.90;;;;;;4812519;29;20236;-57
2023/05/01 08:00:47;;;;;;;4.53;2.23;;;16.50;99.90;;;;;;4810266;29;20251;-58
2023/05/01 08:03:16;;;;;;;4.20;2.47;;;16.50;99.90;;;;;;4811490;29;20602;-57
2023/05/01 08:05:44;;;;;;;4.83;2.30;;;16.60;99.90;;;;;;4811422;29;20240;-57
2023/05/01 08:08:18;;;;;;;4.43;2.43;;;16.60;99.90;;;;;;4812781;29;20236;-58
2023/05/01 08:10:47;;;;;;;4.67;2.57;;;16.50;99.90;;;;;;4810213;29;20239;-56
2023/05/01 08:13:16;;;;;;;3.10;2.10;;;16.60;99.90;;;;;;4813034;29;20242;-57
2023/05/01 08:15:47;;;;;;;5.17;2.40;;;16.60;99.90;;;;;;4812363;29;20235;-58
2023/05/01 08:18:19;;;;;;;3.77;2.20;;;16.60;99.90;;;;;;4812296;29;20653;-59
2023/05/01 08:20:47;;;;;;;7.40;2.40;;;16.70;99.90;;;;;;4810009;29;20729;-57
2023/05/01 08:23:19;;;;;;;5.00;2.53;;;17.30;99.90;;;;;;4812109;29;20267;-57
2023/05/01 08:25:50;;;;;;;6.43;2.73;;;17.60;99.90;;;;;;4810929;29;21868;-57
2023/05/01 08:28:20;;;;;;;4.73;2.60;;;18.00;99.90;;;;;;4811666;29;20275;-58
2023/05/01 08:30:49;;;;;;;4.63;2.40;;;18.30;99.90;;;;;;4808898;29;20615;-58
2023/05/01 08:33:18;;;;;;;5.63;2.83;;;18.30;99.90;;;;;;4811449;29;20244;-58
2023/05/01 08:35:48;;;;;;;6.27;2.70;;;18.30;99.90;;;;;;4811285;29;20853;-58
2023/05/01 08:38:17;;;;;;;4.53;2.60;;;18.70;99.90;;;;;;4813332;29;20324;-57
2023/05/01 08:40:51;;;;;;;5.20;2.60;;;18.80;99.90;;;;;;4810274;29;20329;-58
2023/05/01 08:43:21;;;;;;;5.03;2.37;;;18.90;99.90;;;;;;4811868;29;20243;-58
2023/05/01 08:45:53;;;;;;;5.67;2.67;;;19.10;99.90;;;;;;4810854;29;20251;-58
2023/05/01 08:48:23;;;;;;;3.60;2.00;;;19.40;99.90;;;;;;4811809;29;20230;-58
2023/05/01 08:50:54;;;;;;;4.57;2.63;;;19.50;99.90;;;;;;4810473;29;20239;-58
2023/05/01 08:53:23;;;;;;;5.63;2.50;;;19.60;99.90;;;;;;4813477;29;20254;-59
2023/05/01 08:55:53;;;;;;;4.43;2.40;;;19.70;99.90;;;;;;4810021;29;20258;-57
2023/05/01 08:58:25;;;;;;;3.53;2.20;;;19.90;99.90;;;;;;4810940;29;20619;-59
2023/05/01 09:00:57;;;;;;;3.77;2.77;;;20.20;99.90;;;;;;4808115;29;20246;-58
2023/05/01 09:03:26;;;;;;;4.97;2.70;;;20.40;99.90;;;;;;4810641;29;20753;-58
2023/05/01 09:05:56;;;;;;;5.33;2.60;;;20.40;99.90;;;;;;4811326;29;20265;-59
2023/05/01 09:08:24;;;;;;;6.23;2.87;;;20.30;99.90;;;;;;4812453;29;20234;-58
2023/05/01 09:10:54;;;;;;;4.90;2.20;;;20.30;99.90;;;;;;4811401;29;20243;-59
2023/05/01 09:13:22;;;;;;;4.70;2.17;;;20.40;99.90;;;;;;4810261;29;20247;-59
2023/05/01 09:15:50;;;;;;;6.37;2.60;;;20.30;99.70;;;;;;4810110;29;20243;-58
2023/05/01 09:18:20;;;;;;;6.03;2.20;;;20.20;99.90;;;;;;4810844;29;21029;-59
2023/05/01 09:20:48;;;;;;;4.33;2.27;;;20.00;99.90;;;;;;4808925;29;20699;-58
2023/05/01 09:23:17;;;;;;;6.57;3.10;;;20.10;99.80;;;;;;4811125;29;20925;-59
2023/05/01 09:25:45;;;;;;;4.03;1.97;;;20.50;99.90;;;;;;4810530;29;21359;-59
2023/05/01 09:28:13;;;;;;;6.43;2.60;;;20.90;99.90;;;;;;4812077;29;20791;-59
2023/05/01 09:30:42;;;;;;;8.27;2.87;;;21.20;99.80;;;;;;4810344;29;20254;-58
2023/05/01 09:33:11;;;;;;;3.90;2.40;;;21.00;98.30;;;;;;4812241;29;20243;-58
2023/05/01 09:35:51;;;;;;;6.37;2.47;;;21.00;98.80;;;;;;4813254;29;20267;-59
2023/05/01 09:38:21;;;;;;;5.03;2.50;;;21.30;99.30;;;;;;4810563;29;20240;-59
2023/05/01 09:40:50;;;;;;;4.47;2.30;;;21.20;99.20;;;;;;4808913;29;20239;-59
2023/05/01 09:43:26;;;;;;;8.87;2.60;;;21.10;99.10;;;;;;4810381;29;20238;-59
2023/05/01 09:46:02;;;;;;;5.67;2.50;;;20.90;98.60;;;;;;4810895;29;20240;-58
2023/05/01 09:48:30;;;;;;;3.37;2.13;;;20.80;98.80;;;;;;4810495;29;20239;-59
2023/05/01 09:51:20;;;;;;;5.97;2.40;;;21.00;99.20;;;;;;4809653;29;21089;-59
2023/05/01 09:53:49;;;;;;;5.40;2.23;;;21.00;98.60;;;;;;4811318;29;20911;-58
2023/05/01 09:56:17;;;;;;;4.87;2.50;;;20.90;98.10;;;;;;4810972;29;20292;-59
2023/05/01 09:58:46;;;;;;;4.53;2.17;;;21.20;98.50;;;;;;4810149;29;20246;-58
2023/05/01 10:01:15;;;;;;;5.03;2.40;;;21.30;97.70;;;;;;4808274;29;20248;-56
2023/05/01 10:03:43;;;;;;;5.63;2.57;;;21.40;97.80;;;;;;4811069;29;20640;-59
2023/05/01 10:06:28;;;;;;;4.93;1.87;;;21.60;97.80;;;;;;4809751;29;20236;-57
2023/05/01 10:08:56;;;;;;;4.03;1.90;;;21.60;96.30;;;;;;4811864;29;20290;-57
2023/05/01 10:11:25;;;;;;;4.20;2.10;;;21.50;96.60;;;;;;4810804;29;20250;-59
2023/05/01 10:14:07;;;;;;;4.77;2.07;;;21.60;96.40;;;;;;4812436;29;20793;-58
2023/05/01 10:16:36;;;;;;;5.50;2.13;;;21.80;96.60;;;;;;4812440;29;20700;-60
2023/05/01 10:19:05;;;;;;;3.83;2.27;;;22.10;96.30;;;;;;4815142;29;20743;-59
2023/05/01 10:21:35;;;;;;;5.40;2.00;;;22.30;95.40;;;;;;4812985;29;20735;-59
2023/05/01 10:24:04;;;;;;;3.93;1.90;;;22.40;95.00;;;;;;4815115;29;20243;-59
2023/05/01 10:26:33;;;;;;;4.63;2.10;;;22.40;93.50;;;;;;4812340;29;20716;-60
2023/05/01 10:29:02;;;;;;;4.73;2.10;;;22.30;94.50;;;;;;4812516;29;20232;-60
2023/05/01 10:31:32;;;;;;;6.23;2.17;;;22.40;92.90;;;;;;4809808;29;20247;-59
2023/05/01 10:34:01;;;;;;;3.90;2.03;;;22.50;93.90;;;;;;4811835;29;20976;-58
2023/05/01 10:36:36;;;;;;;5.27;2.57;;;22.50;93.30;;;;;;4812281;29;20224;-58
2023/05/01 10:39:05;;;;;;;4.47;2.13;;;22.30;92.80;;;;;;4814946;29;20703;-60
2023/05/01 10:42:02;;;;;;;2.83;1.70;;;22.10;92.40;;;;;;4812259;29;20232;-60
2023/05/01 10:44:31;;;;;;;5.20;2.13;;;22.50;93.70;;;;;;4814981;29;20263;-60
2023/05/01 10:46:59;;;;;;;6.23;2.40;;;22.80;94.10;;;;;;4814586;29;20600;-60
2023/05/01 10:50:03;;;;;;;3.57;1.93;;;22.90;92.90;;;;;;4814733;29;20709;-60
2023/05/01 10:53:23;;;;;;;7.57;2.07;;;23.20;94.30;;;;;;4809413;29;20243;-59
2023/05/01 10:55:51;;;;;;;5.33;2.20;;;23.00;93.10;;;;;;4772494;30;20253;-59
2023/05/01 10:58:56;;;;;;;3.40;1.93;;;23.00;93.40;;;;;;4803040;29;20601;-60
2023/05/01 11:01:33;;;;;;;4.33;2.10;;;23.00;93.80;;;;;;4764994;29;20260;-59
2023/05/01 11:04:04;;;;;;;3.40;2.10;;;23.50;94.90;;;;;;4769848;29;20352;-59
2023/05/01 11:06:32;;;;;;;4.73;2.20;;;23.10;94.00;;;;;;4793432;29;20240;-58
2023/05/01 11:09:03;;;;;;;3.80;1.97;;;22.90;93.10;;;;;;4811815;29;20248;-59
2023/05/01 11:11:48;;;;;;;5.47;2.30;;;22.70;93.10;;;;;;4810775;29;20258;-59
2023/05/01 11:14:17;;;;;;;3.33;2.00;;;22.70;93.40;;;;;;4812388;29;20317;-60
2023/05/01 11:16:47;;;;;;;3.33;1.83;;;22.60;94.20;;;;;;4811716;29;21319;-59
2023/05/01 11:19:49;;;;;;;3.47;1.93;;;22.50;93.10;;;;;;4812393;29;20267;-60
2023/05/01 11:22:18;;;;;;;3.83;1.80;;;22.20;93.90;;;;;;4810680;29;20315;-60
2023/05/01 11:24:48;;;;;;;3.67;1.80;;;22.50;94.00;;;;;;4811963;29;20329;-59
2023/05/01 11:27:17;;;;;;;4.57;2.10;;;22.50;93.90;;;;;;4811241;29;20716;-59
2023/05/01 11:29:48;;;;;;;5.13;2.27;;;22.60;91.40;;;;;;4812619;29;20677;-60
2023/05/01 11:32:25;;;;;;;4.60;2.20;;;22.70;94.20;;;;;;4810136;29;20757;-59
2023/05/01 11:34:54;;;;;;;3.30;2.00;;;22.60;93.30;;;;;;4812321;29;20240;-60
2023/05/01 11:37:41;;;;;;;6.00;2.40;;;22.20;93.00;;;;;;4813088;29;20232;-59
2023/05/01 11:40:21;;;;;;;4.57;2.10;;;22.20;93.20;;;;;;4813108;29;20776;-59
2023/05/01 11:42:50;;;;;;;4.40;2.50;;;22.30;93.90;;;;;;4811218;29;20237;-59
2023/05/01 11:45:19;;;;;;;5.30;2.37;;;22.50;94.00;;;;;;4811301;29;20244;-60
2023/05/01 11:47:48;;;;;;;5.50;2.20;;;22.50;94.40;;;;;;4811703;29;20247;-60
2023/05/01 11:50:16;;;;;;;5.77;2.37;;;22.70;94.30;;;;;;4811574;29;20264;-60
2023/05/01 11:52:48;;;;;;;3.70;2.23;;;22.80;94.10;;;;;;4810297;29;20233;-58
2023/05/01 11:55:16;;;;;;;4.90;2.50;;;23.00;94.10;;;;;;4811460;29;20262;-60
2023/05/01 11:57:50;;;;;;;4.13;1.93;;;23.00;94.80;;;;;;4811722;29;20602;-58
2023/05/01 12:00:27;;;;;;;5.03;2.10;;;23.10;94.30;;;;;;4811617;29;20250;-60
2023/05/01 12:03:00;;;;;;;6.17;2.47;;;22.90;94.80;;;;;;4811071;29;20263;-60
2023/05/01 12:05:30;;;;;;;5.17;2.30;;;22.60;94.80;;;;;;4811602;29;20708;-60
2023/05/01 12:08:17;;;;;;;4.50;2.10;;;22.50;94.30;;;;;;4811698;29;20240;-60
2023/05/01 12:10:48;;;;;;;5.13;2.00;;;22.60;93.80;;;;;;4810700;29;20249;-60
2023/05/01 12:13:18;;;;;;;5.70;2.30;;;22.60;94.10;;;;;;4811314;29;20247;-60
2023/05/01 12:15:49;;;;;;;4.90;2.00;;;22.30;93.40;;;;;;4811649;29;20264;-58
2023/05/01 12:18:20;;;;;;;3.43;1.80;;;22.40;94.60;;;;;;4811670;29;20256;-60
2023/05/01 12:20:50;;;;;;;4.50;2.00;;;22.40;94.30;;;;;;4810303;29;20233;-59
2023/05/01 12:23:20;;;;;;;3.13;2.23;;;22.60;94.90;;;;;;4810761;29;20245;-58
2023/05/01 12:25:48;;;;;;;6.20;2.30;;;22.60;94.60;;;;;;4811576;29;20240;-59
2023/05/01 12:28:19;;;;;;;2.97;2.40;;;22.60;94.10;;;;;;4810738;29;20743;-60
2023/05/01 12:30:48;;;;;;;3.40;2.03;;;22.80;94.90;;;;;;4809513;29;21217;-60
2023/05/01 12:33:18;;;;;;;5.07;1.93;;;22.70;95.10;;;;;;4810952;29;20721;-57
2023/05/01 12:35:47;;;;;;;4.17;1.97;;;22.50;92.60;;;;;;4812208;29;20228;-60
2023/05/01 12:38:17;;;;;;;4.17;2.03;;;22.60;94.40;;;;;;4811675;29;20719;-58
2023/05/01 12:40:53;;;;;;;5.80;2.20;;;22.60;95.50;;;;;;4808458;29;20239;-59
2023/05/01 12:43:30;;;;;;;3.67;1.93;;;22.80;94.80;;;;;;4809614;29;20236;-59
2023/05/01 12:45:59;;;;;;;5.73;1.87;;;22.70;94.50;;;;;;4810954;29;20580;-60
2023/05/01 12:48:27;;;;;;;3.23;2.03;;;22.60;94.90;;;;;;4810324;29;20578;-60
2023/05/01 12:50:56;;;;;;;4.07;2.00;;;22.50;95.00;;;;;;4808748;29;20225;-61
2023/05/01 12:53:26;;;;;;;3.87;1.97;;;22.20;95.20;;;;;;4809431;29;20270;-60
2023/05/01 12:55:56;;;;;;;5.40;2.23;;;22.20;94.90;;;;;;4810045;29;20240;-60
2023/05/01 12:58:35;;;;;;;3.33;2.17;;;22.20;95.10;;;;;;4809334;29;20328;-60
2023/05/01 13:01:03;;;;;;;4.60;2.20;;;22.10;95.40;;;;;;4807689;29;20253;-61
2023/05/01 13:03:33;;;;;;;3.60;1.90;;;21.90;97.00;;;;;;4809529;29;20243;-60
2023/05/01 13:06:06;;;;;;;2.53;2.00;;;22.00;96.60;;;;;;4810215;29;20245;-58